»·PEaware :: N152BJ KGCN-KPRC

N152BJ :: KGCN-KPRC

FLIGHT INFORMATION

Flight Status: Arrived
Operator: Privately registered:
United States
More flights under this callsign
Pilot: Leighton T. (7520)
Aircraft: CESSNA 152 AEROBAT
(C152)
More flights by this aircraft type
Origin: KGCN Grand Canyon Natl Park
United States
Destination: KPRC Love
United States
More flights between these airports :: More routes between these airports
Route: GRAND4 BISOP V257 DRK
File this flight plan on PilotEdge
Remarks:
Altitude:
(Current/Filed)
10,000ft
Speed:
(Current/Filed)
90kts
Departed: 04-Jun-23 03:09 PM
Arrived: 04-Jun-23 04:22 PM
Distance/Time
Traveled:
80nm/1:13
Distance/Time
To Go:
Arrived

Flight Plot

Page will automatically refresh every two minutes.

Flight plan parsing failed; only flown route is shown


Map Options




Map Legend


Flown Route
Filed Route
Departure Airport
Arrival Airport
Navaid (VOR, NDB)
Fix

Horizontal Profiles

Position Reports

Time Latitude Longitude Heading Altitude Ground
Speed
04-Jun-23 14:59 35.960228 -112.136117 220 6566ft 0kts
04-Jun-23 15:00 35.960228 -112.136117 220 6566ft 0kts
04-Jun-23 15:01 35.960228 -112.136117 220 6566ft 0kts
04-Jun-23 15:02 35.960228 -112.136117 220 6566ft 0kts
04-Jun-23 15:03 35.960228 -112.136117 220 6566ft 0kts
04-Jun-23 15:04 35.960228 -112.136117 219 6566ft 0kts
04-Jun-23 15:05 35.960232 -112.136251 331 6566ft 1kts
04-Jun-23 15:06 35.960691 -112.136415 43 6566ft 10kts
04-Jun-23 15:07 35.961126 -112.136407 320 6566ft 0kts
04-Jun-23 15:08 35.958206 -112.140792 228 6567ft 66kts
04-Jun-23 15:09 35.942776 -112.156805 220 7061ft 71kts
04-Jun-23 15:10 35.927409 -112.169521 226 7416ft 79kts
04-Jun-23 15:11 35.909786 -112.183175 210 7950ft 70kts
04-Jun-23 15:12 35.893264 -112.195480 209 8354ft 66kts
04-Jun-23 15:13 35.876710 -112.207887 210 8900ft 73kts
04-Jun-23 15:14 35.858547 -112.221449 209 9069ft 76kts
04-Jun-23 15:15 35.841345 -112.234254 209 9526ft 67kts
04-Jun-23 15:16 35.821624 -112.248706 209 9644ft 92kts
04-Jun-23 15:17 35.799044 -112.265311 210 9644ft 95kts
04-Jun-23 15:18 35.776724 -112.281789 209 9663ft 93kts
04-Jun-23 15:19 35.754360 -112.298275 210 9674ft 94kts
04-Jun-23 15:20 35.732429 -112.314469 210 9680ft 91kts
04-Jun-23 15:21 35.710427 -112.330632 211 9685ft 91kts
04-Jun-23 15:22 35.688189 -112.347011 211 9700ft 94kts
04-Jun-23 15:23 35.665686 -112.363617 210 9686ft 93kts
04-Jun-23 15:24 35.644017 -112.379569 210 9705ft 90kts
04-Jun-23 15:25 35.622144 -112.395581 211 9722ft 92kts
04-Jun-23 15:26 35.599854 -112.412105 212 9730ft 93kts
04-Jun-23 15:27 35.576058 -112.423614 188 9731ft 92kts
04-Jun-23 15:28 35.550376 -112.425708 185 9757ft 93kts
04-Jun-23 15:29 35.524538 -112.427434 186 9788ft 94kts
04-Jun-23 15:30 35.498520 -112.429108 185 9806ft 93kts
04-Jun-23 15:31 35.472155 -112.430938 185 9819ft 94kts
04-Jun-23 15:32 35.445706 -112.432650 186 9836ft 96kts
04-Jun-23 15:33 35.418877 -112.434296 186 9849ft 96kts
04-Jun-23 15:34 35.392176 -112.436106 185 9855ft 95kts
04-Jun-23 15:35 35.365952 -112.437800 185 9870ft 93kts
04-Jun-23 15:36 35.339453 -112.439488 186 9865ft 94kts
04-Jun-23 15:37 35.312545 -112.441272 185 9857ft 97kts
04-Jun-23 15:38 35.285846 -112.443043 185 9876ft 97kts
04-Jun-23 15:39 35.258997 -112.444634 184 9851ft 95kts
04-Jun-23 15:40 35.232403 -112.446457 185 9844ft 96kts
04-Jun-23 15:41 35.206199 -112.448051 187 9819ft 93kts
04-Jun-23 15:42 35.179993 -112.449793 186 9825ft 96kts
04-Jun-23 15:43 35.152697 -112.451583 187 9782ft 98kts
04-Jun-23 15:44 35.125224 -112.453278 186 9764ft 100kts
04-Jun-23 15:45 35.097098 -112.455127 185 9738ft 103kts
04-Jun-23 15:46 35.069076 -112.456923 186 9714ft 102kts
04-Jun-23 15:47 35.041045 -112.458712 188 9671ft 98kts
04-Jun-23 15:48 35.014158 -112.460343 187 9647ft 97kts
04-Jun-23 15:49 34.986198 -112.462271 185 9646ft 102kts
04-Jun-23 15:50 34.958500 -112.464010 186 9673ft 97kts
04-Jun-23 15:51 34.930437 -112.465826 187 9698ft 103kts
04-Jun-23 15:52 34.901359 -112.467588 187 9458ft 103kts
04-Jun-23 15:53 34.872794 -112.469496 187 9292ft 104kts
04-Jun-23 15:54 34.844004 -112.471380 188 9095ft 102kts
04-Jun-23 15:55 34.815968 -112.473141 188 8909ft 101kts
04-Jun-23 15:56 34.788565 -112.474846 186 8826ft 96kts
04-Jun-23 15:57 34.761806 -112.476597 189 8835ft 95kts
04-Jun-23 15:58 34.734883 -112.478343 188 8856ft 97kts
04-Jun-23 15:59 34.719193 -112.460004 93 8866ft 110kts
04-Jun-23 16:00 34.732529 -112.427109 55 8863ft 114kts
04-Jun-23 16:01 34.749956 -112.394804 55 8867ft 114kts
04-Jun-23 16:02 34.767629 -112.363079 55 8829ft 110kts
04-Jun-23 16:03 34.785216 -112.331426 55 8822ft 116kts
04-Jun-23 16:04 34.803671 -112.298147 55 8860ft 122kts
04-Jun-23 16:05 34.823225 -112.262677 55 8868ft 126kts
04-Jun-23 16:06 34.842136 -112.228545 55 8758ft 115kts
04-Jun-23 16:07 34.863824 -112.202447 7 8732ft 114kts
04-Jun-23 16:08 34.891039 -112.190689 92 8702ft 109kts
04-Jun-23 16:09 34.870731 -112.187764 220 8714ft 96kts
04-Jun-23 16:10 34.850967 -112.209835 223 8751ft 98kts
04-Jun-23 16:11 34.830943 -112.232666 223 8529ft 105kts
04-Jun-23 16:12 34.807653 -112.256838 221 8374ft 109kts
04-Jun-23 16:13 34.784986 -112.280748 223 8120ft 109kts
04-Jun-23 16:14 34.764984 -112.302067 222 7542ft 81kts
04-Jun-23 16:15 34.746793 -112.321491 221 7116ft 88kts
04-Jun-23 16:16 34.728637 -112.340775 223 6767ft 86kts
04-Jun-23 16:17 34.709387 -112.361250 222 6300ft 94kts
04-Jun-23 16:18 34.689554 -112.382046 225 5803ft 96kts
04-Jun-23 16:19 34.667567 -112.396520 192 5506ft 91kts
04-Jun-23 16:20 34.645297 -112.405723 227 5584ft 68kts
04-Jun-23 16:21 34.646446 -112.420832 322 5035ft 34kts
04-Jun-23 16:22 34.647660 -112.422925 218 5027ft 4kts
04-Jun-23 16:23 34.646719 -112.423636 143 5023ft 0kts

Navigation Log

Ident Type
Flight plan parsing failed, navigation log unavailable